createdAt,value
2022-12-08T00:01:33.823Z,26.62
2022-12-08T00:04:03.156Z,27.47
2022-12-08T00:07:00.377Z,27.64
2022-12-08T00:09:40.696Z,28.00
2022-12-08T00:12:15.258Z,27.68
2022-12-08T00:14:49.817Z,27.75
2022-12-08T00:17:17.819Z,27.76
2022-12-08T00:19:45.959Z,29.23
2022-12-08T00:22:14.813Z,28.17
2022-12-08T00:24:45.565Z,27.51
2022-12-08T00:27:16.165Z,28.19
2022-12-08T00:29:45.529Z,27.63
2022-12-08T00:32:14.772Z,27.77
2022-12-08T00:34:42.922Z,27.35
2022-12-08T00:37:10.814Z,27.82
2022-12-08T00:39:38.696Z,28.03
2022-12-08T00:44:58.367Z,28.11
2022-12-08T00:47:26.435Z,28.38
2022-12-08T01:00:56.367Z,27.30
2022-12-08T01:03:25.569Z,27.28
2022-12-08T01:05:53.500Z,27.29
2022-12-08T01:08:21.463Z,27.09
2022-12-08T01:10:49.397Z,26.67
2022-12-08T01:13:17.315Z,26.24
2022-12-08T01:15:45.160Z,25.80
2022-12-08T01:18:13.068Z,26.04
2022-12-08T01:20:40.913Z,26.17
2022-12-08T01:23:08.832Z,25.69
2022-12-08T01:25:36.714Z,25.85
2022-12-08T01:28:04.791Z,26.88
2022-12-08T01:30:33.107Z,26.00
2022-12-08T01:33:01.917Z,26.57
2022-12-08T01:35:29.781Z,26.27
2022-12-08T01:37:57.774Z,26.10
2022-12-08T01:40:25.662Z,26.07
2022-12-08T01:42:53.541Z,26.33
2022-12-08T01:45:32.570Z,26.04
2022-12-08T01:48:06.250Z,25.90
2022-12-08T01:50:34.479Z,26.52
2022-12-08T01:53:12.881Z,26.63
2022-12-08T01:56:10.211Z,26.01
2022-12-08T01:58:42.981Z,26.13
2022-12-08T02:01:11.885Z,26.72
2022-12-08T02:03:44.477Z,26.20
2022-12-08T02:06:12.827Z,26.82
2022-12-08T02:08:41.961Z,25.58
2022-12-08T02:11:11.350Z,25.83
2022-12-08T02:13:41.806Z,25.76
2022-12-08T02:16:31.857Z,25.25
2022-12-08T02:19:33.249Z,25.86
2022-12-08T02:22:07.156Z,25.55
2022-12-08T02:24:34.958Z,26.70
2022-12-08T02:27:28.795Z,26.29
2022-12-08T02:30:02.717Z,26.20
2022-12-08T02:32:49.871Z,26.60
2022-12-08T02:35:45.194Z,26.70
2022-12-08T02:38:25.136Z,26.64
2022-12-08T02:41:11.251Z,25.91
2022-12-08T02:43:49.031Z,26.12
2022-12-08T02:46:27.036Z,25.83
2022-12-08T02:48:56.157Z,26.78
2022-12-08T02:51:24.106Z,26.44
2022-12-08T02:53:52.662Z,26.98
2022-12-08T02:56:50.353Z,26.15
2022-12-08T02:59:37.153Z,26.45
2022-12-08T03:02:44.023Z,27.29
2022-12-08T03:05:14.674Z,27.69
2022-12-08T03:08:23.059Z,27.67
2022-12-08T03:11:09.705Z,28.23
2022-12-08T03:13:51.267Z,28.33
2022-12-08T03:16:24.859Z,26.74
2022-12-08T03:19:02.041Z,27.08
2022-12-08T03:21:32.588Z,27.07
2022-12-08T03:24:04.811Z,27.89
2022-12-08T03:27:07.433Z,27.45
2022-12-08T03:29:35.771Z,27.32
2022-12-08T03:32:22.708Z,26.86
2022-12-08T03:34:51.977Z,26.98
2022-12-08T03:37:20.708Z,27.70
2022-12-08T03:39:48.837Z,26.88
2022-12-08T03:42:16.924Z,27.37
2022-12-08T03:44:44.850Z,27.37
2022-12-08T03:47:12.750Z,26.51
2022-12-08T03:49:40.879Z,27.40
2022-12-08T03:52:08.764Z,26.43
2022-12-08T03:54:36.695Z,26.09
2022-12-08T03:57:04.665Z,26.01
2022-12-08T03:59:32.559Z,26.66
2022-12-08T04:02:00.502Z,26.38
2022-12-08T04:04:28.399Z,26.56
2022-12-08T04:06:56.275Z,30.08
2022-12-08T04:09:24.211Z,28.94
2022-12-08T04:11:52.119Z,27.62
2022-12-08T04:14:20.085Z,27.27
2022-12-08T04:16:47.979Z,26.88
2022-12-08T04:19:15.893Z,26.35
2022-12-08T04:21:43.780Z,26.23
2022-12-08T04:24:11.741Z,26.34
2022-12-08T04:26:39.653Z,26.34
2022-12-08T04:29:07.558Z,25.60
2022-12-08T04:31:35.525Z,26.12
2022-12-08T04:34:03.745Z,26.42
2022-12-08T04:36:31.874Z,25.93
2022-12-08T04:39:00.346Z,25.98
2022-12-08T04:41:28.258Z,26.73
2022-12-08T04:43:56.137Z,27.00
2022-12-08T04:46:24.142Z,26.57
2022-12-08T04:48:52.011Z,27.22
2022-12-08T04:51:21.179Z,26.22
2022-12-08T04:53:49.130Z,26.05
2022-12-08T04:56:18.790Z,26.42
2022-12-08T04:58:47.148Z,26.32
2022-12-08T05:01:15.184Z,27.45
2022-12-08T05:03:43.183Z,26.77
2022-12-08T05:06:14.052Z,26.14
2022-12-08T05:08:43.592Z,26.50
2022-12-08T05:11:12.686Z,26.62
2022-12-08T05:13:40.721Z,26.37
2022-12-08T05:16:11.273Z,26.95
2022-12-08T05:18:40.939Z,27.23
2022-12-08T05:21:09.573Z,26.93
2022-12-08T05:23:37.517Z,27.87
2022-12-08T05:26:05.595Z,28.68
2022-12-08T05:28:42.753Z,27.98
2022-12-08T05:31:13.461Z,27.94
2022-12-08T05:33:42.342Z,28.40
2022-12-08T05:36:13.109Z,28.29
2022-12-08T05:38:41.537Z,29.13
2022-12-08T05:41:11.839Z,29.40
2022-12-08T05:43:39.769Z,28.53
2022-12-08T05:46:08.391Z,28.61
2022-12-08T05:48:36.408Z,28.47
2022-12-08T05:51:04.573Z,28.63
2022-12-08T05:53:32.503Z,30.60
2022-12-08T05:56:00.439Z,30.17
2022-12-08T05:58:28.402Z,29.08
2022-12-08T06:00:56.289Z,28.08
2022-12-08T06:03:24.208Z,28.87
2022-12-08T06:05:52.391Z,28.28
2022-12-08T06:08:20.789Z,29.81
2022-12-08T06:10:48.814Z,29.51
2022-12-08T06:13:16.793Z,30.97
2022-12-08T06:15:45.140Z,29.97
2022-12-08T06:18:13.506Z,31.35
2022-12-08T06:20:41.431Z,32.91
2022-12-08T06:23:10.256Z,34.12
2022-12-08T06:25:38.631Z,34.24
2022-12-08T06:28:07.233Z,35.55
2022-12-08T06:30:35.562Z,36.95
2022-12-08T06:33:03.487Z,38.92
2022-12-08T06:35:31.427Z,39.19
2022-12-08T06:37:59.636Z,38.72
2022-12-08T06:40:27.525Z,40.63
2022-12-08T06:42:55.379Z,40.70
2022-12-08T06:45:23.294Z,41.61
2022-12-08T06:47:51.222Z,39.11
2022-12-08T06:50:19.139Z,37.21
2022-12-08T06:52:57.006Z,36.21
2022-12-08T06:58:19.569Z,35.75
2022-12-08T07:00:47.538Z,35.32
2022-12-08T07:03:15.921Z,38.80
2022-12-08T07:05:43.782Z,52.03
2022-12-08T07:08:11.711Z,46.86
2022-12-08T07:10:39.717Z,43.20
2022-12-08T07:13:07.589Z,40.13
2022-12-08T07:15:35.558Z,38.53
2022-12-08T07:18:03.629Z,38.60
2022-12-08T07:20:31.621Z,39.09
2022-12-08T07:22:59.503Z,38.00
2022-12-08T07:25:27.487Z,37.60
2022-12-08T07:27:55.443Z,36.33
2022-12-08T07:30:23.597Z,35.62
2022-12-08T07:32:51.516Z,35.26
2022-12-08T07:35:19.640Z,36.25
2022-12-08T07:37:47.520Z,37.28
2022-12-08T07:40:15.651Z,37.15
2022-12-08T07:42:43.646Z,40.83
2022-12-08T07:45:11.554Z,45.79
2022-12-08T07:47:39.428Z,45.25
2022-12-08T07:50:08.240Z,45.68
2022-12-08T07:52:36.262Z,44.51
2022-12-08T07:55:04.463Z,44.47
2022-12-08T07:57:32.405Z,43.35
2022-12-08T08:00:00.296Z,43.20
2022-12-08T08:02:28.359Z,44.20
2022-12-08T08:04:56.414Z,40.71
2022-12-08T08:07:24.313Z,40.55
2022-12-08T08:09:52.216Z,41.84
2022-12-08T08:12:31.477Z,43.50
2022-12-08T08:15:07.421Z,48.70
2022-12-08T08:17:37.468Z,51.39
2022-12-08T08:20:07.705Z,56.26
2022-12-08T08:22:36.850Z,57.31
2022-12-08T08:25:05.688Z,55.95
2022-12-08T08:27:33.575Z,57.37
2022-12-08T08:30:01.618Z,57.53
2022-12-08T08:32:33.873Z,57.27
2022-12-08T08:35:02.093Z,56.11
2022-12-08T08:37:29.977Z,53.26
2022-12-08T08:39:57.878Z,55.37
2022-12-08T08:42:25.818Z,50.05
2022-12-08T08:44:54.927Z,45.57
2022-12-08T08:47:22.901Z,46.48
2022-12-08T08:49:50.846Z,47.49
2022-12-08T08:52:18.766Z,45.38
2022-12-08T08:54:46.734Z,44.18
2022-12-08T08:57:14.614Z,43.00
2022-12-08T08:59:42.538Z,41.12
2022-12-08T09:02:17.248Z,40.19
2022-12-08T09:04:45.596Z,37.87
2022-12-08T09:07:14.498Z,37.64
2022-12-08T09:09:42.449Z,35.82
2022-12-08T09:12:10.524Z,35.65
2022-12-08T09:14:38.627Z,36.47
2022-12-08T09:17:06.974Z,37.13
2022-12-08T09:19:35.505Z,36.94
2022-12-08T09:22:04.618Z,36.71
2022-12-08T09:24:32.513Z,36.35
2022-12-08T09:27:00.471Z,36.32
2022-12-08T09:29:34.030Z,36.85
2022-12-08T09:32:04.543Z,37.22
2022-12-08T09:34:32.739Z,36.83
2022-12-08T09:37:00.669Z,37.64
2022-12-08T09:39:28.753Z,36.83
2022-12-08T09:42:02.289Z,37.34
2022-12-08T09:44:45.497Z,38.33
2022-12-08T09:47:22.162Z,38.22
2022-12-08T09:50:13.649Z,36.34
2022-12-08T09:52:53.345Z,35.74
2022-12-08T09:55:29.250Z,36.62
2022-12-08T09:58:02.033Z,36.15
2022-12-08T10:00:30.653Z,36.25
2022-12-08T10:02:59.973Z,35.61
2022-12-08T10:05:32.607Z,36.40
2022-12-08T10:08:10.100Z,38.11
2022-12-08T10:10:43.072Z,38.29
2022-12-08T10:13:40.927Z,35.71
2022-12-08T10:16:28.029Z,37.10
2022-12-08T10:19:15.387Z,41.10
2022-12-08T10:21:43.685Z,38.21
2022-12-08T10:24:39.128Z,36.31
2022-12-08T10:27:13.454Z,37.40
2022-12-08T10:29:41.359Z,37.99
2022-12-08T10:32:22.044Z,39.51
2022-12-08T10:35:09.319Z,38.09
2022-12-08T10:37:37.285Z,36.78
2022-12-08T10:40:16.887Z,37.05
2022-12-08T10:42:50.605Z,39.73
2022-12-08T10:45:41.664Z,37.46
2022-12-08T10:48:31.154Z,39.34
2022-12-08T10:51:00.579Z,45.93
2022-12-08T10:53:29.463Z,45.83
2022-12-08T10:56:03.208Z,44.57
2022-12-08T10:58:45.267Z,44.40
2022-12-08T11:01:26.756Z,46.36
2022-12-08T11:04:01.323Z,42.10
2022-12-08T11:06:29.161Z,40.15
2022-12-08T11:09:04.101Z,38.57
2022-12-08T11:11:45.805Z,35.41
2022-12-08T11:14:27.880Z,31.23
2022-12-08T11:17:08.040Z,32.77
2022-12-08T11:19:45.096Z,32.05
2022-12-08T11:22:32.651Z,31.81
2022-12-08T11:25:10.996Z,35.96
2022-12-08T11:27:42.014Z,32.48
2022-12-08T11:30:37.319Z,31.52
2022-12-08T11:33:24.974Z,30.62
2022-12-08T11:36:00.135Z,28.40
2022-12-08T11:38:29.324Z,27.58
2022-12-08T11:41:22.279Z,26.38
2022-12-08T11:44:04.375Z,26.90
2022-12-08T11:46:35.822Z,28.64
2022-12-08T11:49:11.126Z,29.46
2022-12-08T11:51:44.996Z,28.62
2022-12-08T11:54:25.513Z,27.72
2022-12-08T11:56:57.304Z,26.60
2022-12-08T11:59:47.238Z,24.75
2022-12-08T12:02:21.269Z,23.74
2022-12-08T12:04:59.482Z,24.07
2022-12-08T12:07:46.754Z,24.45
2022-12-08T12:10:39.652Z,23.91
2022-12-08T12:13:35.848Z,23.87
2022-12-08T12:16:19.128Z,23.99
2022-12-08T12:18:55.551Z,24.67
2022-12-08T12:21:33.564Z,24.46
2022-12-08T12:24:08.179Z,24.53
2022-12-08T12:26:41.839Z,24.08
2022-12-08T12:29:21.361Z,24.43
2022-12-08T12:31:59.353Z,23.83
2022-12-08T12:34:31.843Z,24.20
2022-12-08T12:37:12.150Z,23.43
2022-12-08T12:39:52.361Z,22.64
2022-12-08T12:42:40.712Z,22.82
2022-12-08T12:45:12.159Z,21.96
2022-12-08T12:47:55.819Z,22.78
2022-12-08T12:50:33.380Z,22.32
2022-12-08T12:53:09.124Z,23.86
2022-12-08T12:55:46.149Z,24.94
2022-12-08T12:58:22.549Z,22.33
2022-12-08T13:00:50.461Z,21.97
2022-12-08T13:03:18.537Z,21.27
2022-12-08T13:05:52.312Z,20.31
2022-12-08T13:08:23.994Z,20.20
2022-12-08T13:11:01.905Z,20.27
2022-12-08T13:13:30.137Z,19.88
2022-12-08T13:16:18.575Z,19.92
2022-12-08T13:18:49.946Z,19.18
2022-12-08T13:21:23.212Z,19.16
2022-12-08T13:24:13.821Z,18.82
2022-12-08T13:26:46.401Z,19.17
2022-12-08T13:29:15.511Z,18.34
2022-12-08T13:31:58.963Z,17.41
2022-12-08T13:34:58.243Z,17.84
2022-12-08T13:37:31.976Z,17.73
2022-12-08T13:40:09.873Z,17.42
2022-12-08T13:43:02.592Z,17.97
2022-12-08T13:46:18.320Z,18.20
2022-12-08T13:57:35.095Z,18.94
2022-12-08T14:00:13.254Z,19.10
2022-12-08T14:02:55.121Z,18.54
2022-12-08T14:05:47.667Z,18.88
2022-12-08T14:08:57.471Z,19.07
2022-12-08T14:11:38.941Z,19.42
2022-12-08T14:17:23.918Z,18.79
2022-12-08T14:20:01.337Z,18.91
2022-12-08T14:22:34.988Z,19.36
2022-12-08T14:25:04.736Z,19.36
2022-12-08T14:27:35.987Z,19.64
2022-12-08T14:30:15.926Z,19.09
2022-12-08T14:32:44.392Z,20.49
2022-12-08T14:35:19.327Z,26.74
2022-12-08T14:37:50.712Z,24.95
2022-12-08T14:40:22.736Z,25.20
2022-12-08T14:42:54.621Z,29.60
2022-12-08T14:45:22.553Z,29.09
2022-12-08T14:47:51.195Z,22.37
2022-12-08T14:50:43.453Z,21.00
2022-12-08T14:53:15.256Z,19.96
2022-12-08T14:55:46.238Z,19.34
2022-12-08T14:58:24.302Z,19.48
2022-12-08T15:00:58.335Z,20.41
2022-12-08T15:03:29.054Z,20.22
2022-12-08T15:06:00.368Z,19.52
2022-12-08T15:08:28.556Z,19.94
2022-12-08T15:11:21.290Z,20.85
2022-12-08T15:13:52.736Z,21.13
2022-12-08T15:16:40.228Z,20.70
2022-12-08T15:19:16.862Z,20.61
2022-12-08T15:21:46.638Z,22.84
2022-12-08T15:24:15.538Z,30.88
2022-12-08T15:26:48.857Z,26.95
2022-12-08T15:29:28.314Z,24.89
2022-12-08T15:32:01.470Z,24.56
2022-12-08T15:34:29.342Z,23.54
2022-12-08T15:36:57.391Z,23.79
2022-12-08T15:39:35.625Z,25.28
2022-12-08T15:42:10.089Z,25.78
2022-12-08T15:44:38.544Z,27.47
2022-12-08T15:47:07.080Z,29.66
2022-12-08T15:49:35.039Z,30.34
2022-12-08T15:52:10.820Z,30.98
2022-12-08T15:54:39.372Z,30.89
2022-12-08T15:57:22.212Z,30.92
2022-12-08T16:00:05.228Z,34.17
2022-12-08T16:02:56.258Z,33.27
2022-12-08T16:05:44.224Z,35.12
2022-12-08T16:08:44.750Z,36.48
2022-12-08T16:11:56.474Z,34.09
2022-12-08T16:14:48.720Z,33.03
2022-12-08T16:17:01.279Z,32.20
2022-12-08T16:19:29.233Z,31.52
2022-12-08T16:24:45.099Z,30.28
2022-12-08T16:30:22.274Z,29.63
2022-12-08T16:32:51.128Z,29.23
2022-12-08T16:35:19.039Z,29.90
2022-12-08T16:37:47.043Z,29.34
2022-12-08T16:40:15.323Z,30.37
2022-12-08T16:42:47.777Z,31.09
2022-12-08T16:45:21.007Z,30.60
2022-12-08T16:47:54.968Z,32.04
2022-12-08T16:50:34.824Z,33.46
2022-12-08T16:53:09.006Z,34.18
2022-12-08T16:55:36.933Z,33.77
2022-12-08T16:58:05.181Z,35.23
2022-12-08T17:00:37.064Z,35.48
2022-12-08T17:03:08.150Z,33.63
2022-12-08T17:05:36.137Z,33.39
2022-12-08T17:08:04.665Z,32.03
2022-12-08T17:10:34.538Z,32.32
2022-12-08T17:13:02.726Z,32.65
2022-12-08T17:15:30.809Z,33.47
2022-12-08T17:17:58.682Z,33.27
2022-12-08T17:20:28.367Z,30.82
2022-12-08T17:22:58.125Z,31.38
2022-12-08T17:25:26.628Z,30.62
2022-12-08T17:27:56.255Z,29.88
2022-12-08T17:30:24.327Z,30.26
2022-12-08T17:32:52.899Z,28.68
2022-12-08T17:35:21.626Z,31.47
2022-12-08T17:37:49.774Z,44.41
2022-12-08T17:40:17.934Z,30.50
2022-12-08T17:42:46.424Z,26.53
2022-12-08T17:45:14.360Z,26.65
2022-12-08T17:47:42.302Z,26.80
2022-12-08T17:50:10.589Z,30.29
2022-12-08T17:52:38.573Z,33.07
2022-12-08T17:55:07.026Z,31.94
2022-12-08T17:57:34.912Z,30.59
2022-12-08T18:00:04.184Z,28.40
2022-12-08T18:02:39.872Z,27.31
2022-12-08T18:05:08.195Z,26.89
2022-12-08T18:07:36.169Z,26.92
2022-12-08T18:10:04.825Z,25.84
2022-12-08T18:12:33.278Z,26.49
2022-12-08T18:15:02.048Z,25.92
2022-12-08T18:17:30.426Z,24.99
2022-12-08T18:19:58.378Z,24.18
2022-12-08T18:22:27.015Z,23.60
2022-12-08T18:24:55.001Z,22.69
2022-12-08T18:27:23.336Z,22.51
2022-12-08T18:29:51.410Z,23.97
2022-12-08T18:32:23.506Z,23.90
2022-12-08T18:34:51.434Z,24.17
2022-12-08T18:37:19.885Z,23.80
2022-12-08T18:39:48.010Z,23.26
2022-12-08T18:42:25.117Z,23.48
2022-12-08T18:45:06.820Z,23.11
2022-12-08T18:47:37.561Z,23.13
2022-12-08T18:50:08.219Z,35.55
2022-12-08T18:52:36.260Z,67.63
2022-12-08T18:55:06.993Z,33.55
2022-12-08T18:57:40.043Z,27.02
2022-12-08T19:00:11.815Z,26.40
2022-12-08T19:02:41.585Z,31.18
2022-12-08T19:05:11.733Z,32.23
2022-12-08T19:07:39.882Z,25.99
2022-12-08T19:10:08.757Z,30.35
2022-12-08T19:12:36.997Z,31.11
2022-12-08T19:15:06.131Z,27.92
2022-12-08T19:17:34.389Z,23.14
2022-12-08T19:20:02.355Z,21.36
2022-12-08T19:22:30.365Z,20.93
2022-12-08T19:24:58.282Z,21.14
2022-12-08T19:27:29.038Z,19.86
2022-12-08T19:29:56.996Z,21.08
2022-12-08T19:32:25.058Z,20.78
2022-12-08T19:34:53.217Z,21.87
2022-12-08T19:37:21.226Z,21.98
2022-12-08T19:40:08.430Z,22.56
2022-12-08T19:42:55.165Z,21.98
2022-12-08T19:45:23.329Z,23.00
2022-12-08T19:47:51.449Z,22.89
2022-12-08T19:50:37.835Z,22.73
2022-12-08T19:53:10.106Z,22.55
2022-12-08T19:55:39.155Z,23.06
2022-12-08T19:58:07.768Z,23.24
2022-12-08T20:00:38.021Z,23.22
2022-12-08T20:03:06.974Z,24.87
2022-12-08T20:05:36.527Z,25.19
2022-12-08T20:08:04.807Z,26.74
2022-12-08T20:10:38.821Z,25.30
2022-12-08T20:13:26.741Z,25.15
2022-12-08T20:15:55.068Z,27.01
2022-12-08T20:18:23.195Z,27.59
2022-12-08T20:20:51.537Z,29.00
2022-12-08T20:23:19.493Z,31.40
2022-12-08T20:25:47.869Z,34.08
2022-12-08T20:28:16.244Z,36.02
2022-12-08T20:30:46.880Z,36.95
2022-12-08T20:33:16.765Z,38.73
2022-12-08T20:35:46.019Z,37.21
2022-12-08T20:38:13.989Z,38.94
2022-12-08T20:40:43.839Z,41.35
2022-12-08T20:43:12.175Z,38.15
2022-12-08T20:45:40.257Z,38.70
2022-12-08T20:48:08.227Z,39.03
2022-12-08T20:50:36.230Z,39.89
2022-12-08T20:53:04.305Z,38.54
2022-12-08T20:55:32.359Z,40.63
2022-12-08T20:58:00.506Z,39.81
2022-12-08T21:00:28.507Z,41.26
2022-12-08T21:02:57.434Z,42.22
2022-12-08T21:05:25.641Z,43.44
2022-12-08T21:07:54.124Z,42.19
2022-12-08T21:10:22.198Z,43.35
2022-12-08T21:12:50.137Z,42.05
2022-12-08T21:15:18.285Z,41.88
2022-12-08T21:17:46.587Z,41.06
2022-12-08T21:20:14.623Z,40.29
2022-12-08T21:22:42.955Z,43.54
2022-12-08T21:25:11.003Z,47.60
2022-12-08T21:27:39.205Z,48.23
2022-12-08T21:30:08.904Z,52.05
2022-12-08T21:32:40.135Z,49.45
2022-12-08T21:35:09.253Z,48.14
2022-12-08T21:37:37.689Z,54.02
2022-12-08T21:40:06.824Z,65.97
2022-12-08T21:42:44.590Z,63.53
2022-12-08T21:45:16.949Z,55.62
2022-12-08T21:47:47.194Z,56.94
2022-12-08T21:50:15.889Z,52.74
2022-12-08T21:52:47.625Z,53.84
2022-12-08T21:55:20.324Z,54.27
2022-12-08T21:57:48.540Z,53.28
2022-12-08T22:00:17.675Z,53.05
2022-12-08T22:02:46.984Z,50.58
2022-12-08T22:05:15.352Z,52.32
2022-12-08T22:07:43.774Z,52.31
2022-12-08T22:10:12.237Z,52.76
2022-12-08T22:12:40.876Z,51.15
2022-12-08T22:15:11.360Z,47.72
2022-12-08T22:17:41.395Z,45.13
2022-12-08T22:20:13.292Z,43.52
2022-12-08T22:22:42.230Z,42.62
2022-12-08T22:25:12.031Z,43.28
2022-12-08T22:27:40.713Z,49.21
2022-12-08T22:30:10.426Z,54.25
2022-12-08T22:32:39.125Z,53.76
2022-12-08T22:35:07.356Z,50.83
2022-12-08T22:37:35.214Z,49.36
2022-12-08T22:40:03.915Z,44.60
2022-12-08T22:42:32.264Z,43.77
2022-12-08T22:45:00.199Z,43.49
2022-12-08T22:47:28.457Z,44.50
2022-12-08T22:49:56.392Z,45.33
2022-12-08T22:52:24.302Z,45.36
2022-12-08T22:54:52.480Z,46.73
2022-12-08T22:57:20.447Z,44.46
2022-12-08T22:59:48.391Z,46.68
2022-12-08T23:02:16.230Z,49.20
2022-12-08T23:04:46.359Z,48.89
2022-12-08T23:07:14.885Z,50.10
2022-12-08T23:09:43.574Z,50.27
2022-12-08T23:12:11.425Z,49.95
2022-12-08T23:14:39.547Z,50.37
2022-12-08T23:17:08.116Z,48.26
2022-12-08T23:19:36.929Z,48.64
2022-12-08T23:22:04.998Z,48.64
2022-12-08T23:24:33.017Z,49.26
2022-12-08T23:27:01.125Z,50.64
2022-12-08T23:29:29.062Z,51.73
2022-12-08T23:31:56.991Z,52.85
2022-12-08T23:34:25.052Z,52.71
2022-12-08T23:36:52.990Z,51.72
2022-12-08T23:39:24.153Z,50.18
2022-12-08T23:41:52.307Z,49.79
2022-12-08T23:44:20.275Z,48.20
2022-12-08T23:46:48.506Z,47.99
2022-12-08T23:49:16.945Z,47.50
2022-12-08T23:51:44.884Z,46.95
2022-12-08T23:54:12.912Z,47.02
2022-12-08T23:56:41.764Z,46.49
2022-12-08T23:59:10.016Z,47.50
